createdAt,value
2023-04-02T00:00:19.577Z,2.08
2023-04-02T00:02:55.463Z,2.10
2023-04-02T00:05:26.072Z,2.05
2023-04-02T00:07:57.908Z,2.08
2023-04-02T00:10:39.710Z,2.09
2023-04-02T00:13:11.943Z,2.19
2023-04-02T00:15:40.936Z,2.09
2023-04-02T00:18:13.205Z,2.11
2023-04-02T00:20:43.788Z,2.06
2023-04-02T00:23:14.276Z,2.07
2023-04-02T00:25:46.161Z,2.12
2023-04-02T00:28:15.279Z,2.05
2023-04-02T00:31:00.012Z,2.07
2023-04-02T00:33:30.008Z,2.12
2023-04-02T00:35:56.500Z,2.12
2023-04-02T00:38:27.736Z,2.10
2023-04-02T00:40:57.356Z,2.04
2023-04-02T00:43:27.996Z,2.07
2023-04-02T00:45:58.142Z,2.10
2023-04-02T00:48:31.327Z,2.07
2023-04-02T00:51:07.860Z,2.08
2023-04-02T00:53:35.646Z,1.99
2023-04-02T00:56:03.413Z,2.03
2023-04-02T00:58:34.029Z,2.08
2023-04-02T01:01:01.280Z,2.08
2023-04-02T01:03:36.575Z,2.09
2023-04-02T01:06:16.815Z,2.06
2023-04-02T01:08:55.836Z,2.11
2023-04-02T01:12:06.623Z,2.12
2023-04-02T01:14:56.303Z,2.11
2023-04-02T01:18:06.854Z,2.11
2023-04-02T01:20:55.079Z,2.17
2023-04-02T01:23:32.320Z,2.13
2023-04-02T01:26:06.900Z,2.12
2023-04-02T01:28:51.803Z,2.15
2023-04-02T01:31:18.671Z,2.12
2023-04-02T01:33:45.339Z,2.07
2023-04-02T01:36:23.845Z,2.09
2023-04-02T01:39:08.714Z,2.09
2023-04-02T01:41:49.729Z,2.06
2023-04-02T01:44:29.837Z,2.05
2023-04-02T01:46:58.777Z,2.06
2023-04-02T01:49:25.984Z,2.07
2023-04-02T01:51:56.760Z,2.06
2023-04-02T01:54:26.070Z,2.01
2023-04-02T01:56:52.697Z,2.05
2023-04-02T01:59:22.153Z,2.04
2023-04-02T02:02:01.915Z,2.08
2023-04-02T02:04:31.004Z,2.08
2023-04-02T02:07:01.986Z,2.07
2023-04-02T02:09:35.804Z,2.00
2023-04-02T02:12:04.159Z,1.98
2023-04-02T02:14:31.432Z,2.00
2023-04-02T02:17:02.379Z,1.98
2023-04-02T02:19:34.424Z,1.95
2023-04-02T02:22:13.835Z,1.92
2023-04-02T02:24:42.105Z,1.90
2023-04-02T02:27:42.993Z,1.90
2023-04-02T02:30:22.079Z,1.90
2023-04-02T02:33:01.048Z,1.89
2023-04-02T02:36:07.635Z,1.88
2023-04-02T02:38:46.067Z,1.86
2023-04-02T02:41:26.744Z,1.83
2023-04-02T02:44:00.838Z,1.77
2023-04-02T02:46:30.272Z,1.72
2023-04-02T02:48:59.989Z,1.68
2023-04-02T02:51:40.445Z,1.70
2023-04-02T02:54:09.136Z,1.75
2023-04-02T02:56:42.419Z,1.72
2023-04-02T02:59:11.185Z,1.69
2023-04-02T03:01:42.246Z,1.72
2023-04-02T03:04:09.821Z,1.67
2023-04-02T03:06:36.763Z,1.66
2023-04-02T03:09:22.756Z,1.61
2023-04-02T03:11:56.142Z,1.67
2023-04-02T03:14:32.823Z,1.63
2023-04-02T03:17:10.915Z,1.59
2023-04-02T03:19:47.699Z,1.64
2023-04-02T03:22:32.284Z,1.69
2023-04-02T03:25:13.077Z,1.66
2023-04-02T03:27:44.288Z,1.54
2023-04-02T03:30:57.977Z,1.41
2023-04-02T03:33:29.978Z,1.33
2023-04-02T03:36:21.097Z,1.31
2023-04-02T03:39:05.800Z,1.26
2023-04-02T03:41:41.779Z,1.22
2023-04-02T03:44:21.620Z,1.03
2023-04-02T03:46:57.385Z,1.04
2023-04-02T03:49:39.580Z,0.96
2023-04-02T03:52:11.839Z,0.89
2023-04-02T03:54:41.042Z,0.82
2023-04-02T03:57:38.248Z,0.82
2023-04-02T04:00:14.235Z,0.84
2023-04-02T04:02:57.391Z,0.80
2023-04-02T04:05:34.578Z,0.70
2023-04-02T04:08:06.644Z,0.57
2023-04-02T04:10:35.479Z,0.63
2023-04-02T04:13:28.181Z,0.59
2023-04-02T04:16:00.650Z,0.73
2023-04-02T04:18:37.760Z,0.75
2023-04-02T04:21:22.805Z,0.73
2023-04-02T04:23:51.048Z,0.70
2023-04-02T04:26:31.152Z,0.72
2023-04-02T04:29:13.368Z,0.64
2023-04-02T04:31:46.953Z,0.60
2023-04-02T04:34:19.105Z,0.78
2023-04-02T04:36:55.228Z,0.83
2023-04-02T04:39:47.229Z,0.79
2023-04-02T04:42:21.396Z,0.75
2023-04-02T04:45:00.554Z,0.66
2023-04-02T04:47:36.249Z,0.75
2023-04-02T04:50:33.085Z,0.74
2023-04-02T04:53:14.236Z,0.70
2023-04-02T04:55:45.751Z,0.56
2023-04-02T04:58:24.473Z,0.66
2023-04-02T05:01:24.044Z,0.69
2023-04-02T05:03:57.525Z,0.74
2023-04-02T05:06:45.007Z,0.81
2023-04-02T05:09:33.144Z,0.79
2023-04-02T05:12:17.808Z,0.78
2023-04-02T05:15:05.676Z,0.62
2023-04-02T05:17:42.557Z,0.66
2023-04-02T05:20:22.747Z,0.66
2023-04-02T05:23:02.712Z,0.55
2023-04-02T05:25:31.646Z,0.55
2023-04-02T05:28:22.093Z,0.52
2023-04-02T05:31:12.147Z,0.57
2023-04-02T05:33:40.660Z,0.54
2023-04-02T05:36:19.632Z,0.65
2023-04-02T05:38:51.987Z,0.72
2023-04-02T05:41:32.297Z,0.86
2023-04-02T05:44:16.492Z,0.80
2023-04-02T05:46:51.467Z,0.90
2023-04-02T05:49:25.577Z,1.09
2023-04-02T05:51:58.102Z,1.20
2023-04-02T05:54:30.386Z,1.22
2023-04-02T05:57:04.698Z,1.23
2023-04-02T05:59:49.554Z,1.35
2023-04-02T06:02:30.944Z,1.53
2023-04-02T06:05:16.717Z,1.69
2023-04-02T06:07:47.781Z,1.76
2023-04-02T06:10:24.606Z,1.78
2023-04-02T06:13:06.569Z,1.84
2023-04-02T06:15:38.286Z,1.81
2023-04-02T06:18:20.041Z,1.84
2023-04-02T06:20:47.921Z,1.89
2023-04-02T06:23:21.299Z,2.01
2023-04-02T06:26:14.936Z,2.11
2023-04-02T06:28:47.786Z,2.21
2023-04-02T06:31:39.109Z,2.40
2023-04-02T06:34:16.011Z,2.51
2023-04-02T06:36:49.959Z,2.68
2023-04-02T06:39:20.170Z,2.79
2023-04-02T06:42:04.635Z,2.84
2023-04-02T06:44:50.368Z,2.95
2023-04-02T06:47:43.139Z,3.07
2023-04-02T06:50:19.481Z,3.13
2023-04-02T06:52:50.778Z,3.20
2023-04-02T06:55:29.805Z,3.30
2023-04-02T06:57:56.810Z,3.42
2023-04-02T07:00:30.541Z,3.50
2023-04-02T07:03:01.118Z,3.67
2023-04-02T07:05:27.775Z,3.86
2023-04-02T07:07:54.446Z,4.01
2023-04-02T07:10:21.332Z,4.17
2023-04-02T07:12:48.404Z,4.31
2023-04-02T07:15:19.301Z,4.44
2023-04-02T07:17:46.774Z,4.54
2023-04-02T07:20:29.633Z,4.71
2023-04-02T07:22:58.332Z,4.91
2023-04-02T07:25:26.468Z,5.06
2023-04-02T07:27:53.869Z,5.21
2023-04-02T07:30:20.394Z,5.38
2023-04-02T07:32:47.349Z,5.63
2023-04-02T07:35:14.130Z,5.65
2023-04-02T07:37:40.716Z,5.40
2023-04-02T07:40:20.522Z,5.53
2023-04-02T07:42:47.733Z,5.42
2023-04-02T07:45:14.580Z,5.38
2023-04-02T07:47:41.517Z,5.55
2023-04-02T07:50:08.695Z,5.51
2023-04-02T07:52:40.644Z,5.55
2023-04-02T07:55:07.885Z,5.95
2023-04-02T07:57:39.071Z,6.14
2023-04-02T08:00:07.417Z,6.27
2023-04-02T08:02:38.890Z,6.12
2023-04-02T08:05:05.922Z,6.04
2023-04-02T08:07:32.573Z,5.99
2023-04-02T08:09:59.061Z,5.71
2023-04-02T08:12:25.460Z,5.60
2023-04-02T08:14:51.927Z,5.96
2023-04-02T08:17:18.694Z,6.02
2023-04-02T08:19:54.772Z,6.42
2023-04-02T08:22:21.875Z,6.83
2023-04-02T08:24:48.273Z,7.04
2023-04-02T08:27:15.302Z,7.04
2023-04-02T08:29:41.724Z,7.22
2023-04-02T08:32:15.643Z,7.50
2023-04-02T08:34:43.266Z,7.74
2023-04-02T08:37:11.722Z,7.98
2023-04-02T08:39:38.515Z,8.21
2023-04-02T08:42:19.196Z,8.03
2023-04-02T08:45:25.495Z,7.94
2023-04-02T08:47:56.099Z,7.94
2023-04-02T08:50:37.750Z,8.31
2023-04-02T08:53:12.410Z,8.62
2023-04-02T08:55:42.975Z,8.86
2023-04-02T08:58:32.228Z,8.81
2023-04-02T09:01:02.240Z,8.76
2023-04-02T09:03:36.652Z,8.74
2023-04-02T09:06:05.471Z,8.79
2023-04-02T09:08:33.440Z,8.94
2023-04-02T09:11:29.314Z,8.85
2023-04-02T09:14:01.820Z,8.45
2023-04-02T09:16:45.137Z,7.96
2023-04-02T09:19:38.049Z,7.87
2023-04-02T09:22:30.236Z,7.85
2023-04-02T09:25:01.717Z,7.57
2023-04-02T09:27:31.430Z,7.68
2023-04-02T09:30:03.768Z,7.93
2023-04-02T09:32:36.525Z,8.20
2023-04-02T09:35:25.610Z,8.38
2023-04-02T09:38:17.494Z,8.32
2023-04-02T09:40:58.578Z,8.44
2023-04-02T09:43:36.924Z,8.44
2023-04-02T09:46:23.790Z,8.49
2023-04-02T09:48:58.459Z,8.66
2023-04-02T09:51:28.130Z,8.60
2023-04-02T09:54:03.737Z,8.63
2023-04-02T09:56:32.887Z,8.67
2023-04-02T09:59:21.901Z,8.80
2023-04-02T10:01:54.284Z,8.87
2023-04-02T10:04:49.453Z,8.82
2023-04-02T10:07:37.383Z,8.59
2023-04-02T10:10:30.616Z,8.82
2023-04-02T10:13:04.123Z,9.11
2023-04-02T10:15:51.504Z,9.02
2023-04-02T10:18:41.489Z,8.96
2023-04-02T10:21:15.527Z,9.08
2023-04-02T10:23:42.023Z,9.18
2023-04-02T10:26:29.987Z,9.38
2023-04-02T10:29:18.146Z,9.45
2023-04-02T10:32:04.016Z,9.67
2023-04-02T10:34:41.160Z,9.83
2023-04-02T10:37:46.782Z,9.67
2023-04-02T10:40:45.493Z,9.39
2023-04-02T10:43:32.685Z,9.39
2023-04-02T10:46:10.158Z,9.84
2023-04-02T10:48:49.583Z,9.90
2023-04-02T10:51:33.823Z,10.05
2023-04-02T10:54:19.379Z,10.22
2023-04-02T10:56:50.933Z,10.54
2023-04-02T10:59:24.339Z,10.80
2023-04-02T11:01:53.560Z,10.98
2023-04-02T11:04:27.553Z,11.11
2023-04-02T11:07:11.031Z,11.21
2023-04-02T11:09:43.226Z,11.33
2023-04-02T11:12:21.340Z,11.37
2023-04-02T11:14:49.453Z,11.57
2023-04-02T11:17:19.611Z,11.91
2023-04-02T11:19:46.143Z,11.81
2023-04-02T11:22:25.578Z,12.05
2023-04-02T11:24:54.815Z,11.80
2023-04-02T11:27:32.694Z,11.94
2023-04-02T11:30:24.896Z,11.90
2023-04-02T11:32:51.618Z,12.10
2023-04-02T11:35:30.126Z,12.41
2023-04-02T11:38:00.841Z,12.41
2023-04-02T11:40:52.115Z,12.63
2023-04-02T11:43:38.445Z,12.61
2023-04-02T11:46:24.430Z,12.89
2023-04-02T11:48:51.426Z,12.68
2023-04-02T11:51:21.312Z,12.95
2023-04-02T11:53:49.898Z,12.60
2023-04-02T11:56:48.272Z,12.38
2023-04-02T11:59:25.749Z,12.87
2023-04-02T12:02:32.158Z,12.77
2023-04-02T12:04:58.751Z,12.62
2023-04-02T12:07:52.091Z,12.81
2023-04-02T12:10:32.409Z,13.21
2023-04-02T12:12:59.083Z,13.23
2023-04-02T12:15:44.394Z,13.95
2023-04-02T12:18:17.172Z,13.73
2023-04-02T12:20:50.767Z,13.67
2023-04-02T12:23:23.901Z,13.52
2023-04-02T12:25:58.566Z,13.84
2023-04-02T12:28:28.896Z,13.61
2023-04-02T12:31:06.070Z,13.63
2023-04-02T12:33:38.538Z,13.83
2023-04-02T12:36:14.440Z,13.94
2023-04-02T12:38:47.585Z,13.82
2023-04-02T12:41:24.680Z,13.73
2023-04-02T12:44:06.407Z,14.12
2023-04-02T12:46:35.704Z,14.53
2023-04-02T12:49:23.516Z,14.50
2023-04-02T12:51:51.451Z,14.42
2023-04-02T12:54:20.585Z,13.95
2023-04-02T12:56:48.238Z,14.72
2023-04-02T12:59:28.595Z,15.01
2023-04-02T13:02:00.628Z,14.96
2023-04-02T13:04:27.940Z,14.62
2023-04-02T13:06:55.756Z,14.72
2023-04-02T13:09:31.922Z,14.53
2023-04-02T13:11:59.172Z,14.91
2023-04-02T13:14:26.521Z,14.93
2023-04-02T13:16:53.444Z,14.94
2023-04-02T13:19:31.682Z,14.86
2023-04-02T13:22:01.606Z,14.87
2023-04-02T13:24:31.053Z,15.11
2023-04-02T13:27:00.893Z,14.35
2023-04-02T13:29:35.480Z,14.72
2023-04-02T13:32:05.645Z,14.76
2023-04-02T13:34:32.786Z,14.87
2023-04-02T13:36:59.356Z,14.92
2023-04-02T13:39:27.197Z,14.84
2023-04-02T13:41:57.897Z,15.17
2023-04-02T13:44:27.800Z,15.31
2023-04-02T13:46:55.600Z,15.09
2023-04-02T13:49:23.622Z,15.04
2023-04-02T13:51:57.942Z,15.31
2023-04-02T13:54:51.184Z,15.17
2023-04-02T13:57:18.028Z,15.14
2023-04-02T13:59:44.510Z,14.78
2023-04-02T14:02:18.808Z,14.46
2023-04-02T14:04:50.919Z,14.88
2023-04-02T14:07:26.080Z,15.09
2023-04-02T14:10:01.916Z,15.20
2023-04-02T14:13:00.392Z,14.90
2023-04-02T14:15:47.879Z,15.22
2023-04-02T14:18:23.580Z,14.75
2023-04-02T14:20:52.934Z,14.88
2023-04-02T14:23:28.695Z,14.49
2023-04-02T14:26:15.236Z,14.72
2023-04-02T14:28:50.642Z,14.57
2023-04-02T14:31:28.569Z,14.82
2023-04-02T14:34:02.987Z,15.30
2023-04-02T14:36:48.218Z,15.29
2023-04-02T14:39:38.716Z,15.13
2023-04-02T14:42:16.638Z,15.20
2023-04-02T14:45:11.605Z,15.12
2023-04-02T14:47:53.107Z,14.90
2023-04-02T14:50:27.788Z,15.17
2023-04-02T14:52:59.415Z,14.63
2023-04-02T14:55:44.564Z,14.40
2023-04-02T14:58:18.685Z,14.12
2023-04-02T15:01:01.848Z,13.95
2023-04-02T15:03:58.795Z,14.38
2023-04-02T15:06:41.695Z,14.49
2023-04-02T15:09:23.766Z,14.33
2023-04-02T15:11:59.226Z,14.02
2023-04-02T15:14:36.886Z,14.28
2023-04-02T15:17:03.380Z,13.71
2023-04-02T15:19:29.975Z,13.96
2023-04-02T15:22:14.125Z,14.16
2023-04-02T15:25:03.122Z,13.60
2023-04-02T15:27:48.366Z,13.54
2023-04-02T15:30:22.045Z,13.33
2023-04-02T15:32:49.600Z,13.72
2023-04-02T15:35:28.722Z,13.97
2023-04-02T15:37:58.606Z,13.15
2023-04-02T15:40:31.028Z,13.23
2023-04-02T15:43:18.857Z,12.56
2023-04-02T15:45:58.507Z,11.88
2023-04-02T15:48:53.007Z,11.68
2023-04-02T15:51:38.551Z,11.67
2023-04-02T15:54:31.868Z,12.25
2023-04-02T15:57:17.193Z,12.73
2023-04-02T16:00:02.288Z,12.73
2023-04-02T16:02:41.160Z,12.06
2023-04-02T16:05:33.379Z,11.65
2023-04-02T16:08:17.828Z,11.54
2023-04-02T16:10:45.523Z,11.54
2023-04-02T16:13:19.609Z,12.17
2023-04-02T16:15:53.392Z,12.74
2023-04-02T16:18:38.265Z,12.67
2023-04-02T16:21:04.893Z,11.44
2023-04-02T16:23:39.127Z,10.98
2023-04-02T16:26:23.698Z,11.09
2023-04-02T16:29:27.377Z,10.66
2023-04-02T16:32:19.868Z,10.61
2023-04-02T16:35:22.272Z,10.23
2023-04-02T16:37:56.280Z,9.92
2023-04-02T16:40:25.369Z,9.57
2023-04-02T16:43:21.884Z,9.65
2023-04-02T16:46:03.171Z,9.53
2023-04-02T16:48:55.227Z,9.00
2023-04-02T16:51:28.999Z,9.01
2023-04-02T16:54:18.563Z,8.87
2023-04-02T16:57:09.970Z,8.82
2023-04-02T16:59:54.952Z,8.66
2023-04-02T17:03:01.166Z,8.66
2023-04-02T17:06:11.865Z,8.46
2023-04-02T17:09:09.518Z,8.38
2023-04-02T17:11:48.854Z,8.35
2023-04-02T17:14:24.329Z,8.27
2023-04-02T17:16:55.866Z,8.16
2023-04-02T17:19:25.844Z,7.99
2023-04-02T17:21:56.679Z,8.00
2023-04-02T17:24:29.839Z,7.84
2023-04-02T17:27:06.690Z,7.81
2023-04-02T17:29:37.721Z,7.81
2023-04-02T17:32:11.987Z,7.59
2023-04-02T17:34:38.426Z,7.61
2023-04-02T17:37:27.525Z,7.51
2023-04-02T17:40:08.252Z,7.31
2023-04-02T17:43:08.928Z,7.10
2023-04-02T17:45:49.926Z,6.99
2023-04-02T17:48:40.383Z,6.87
2023-04-02T17:51:12.265Z,6.99
2023-04-02T17:53:47.800Z,6.99
2023-04-02T17:56:36.542Z,6.89
2023-04-02T17:59:34.422Z,6.56
2023-04-02T18:02:24.027Z,6.50
2023-04-02T18:05:19.671Z,6.57
2023-04-02T18:08:07.383Z,6.59
2023-04-02T18:11:04.506Z,6.65
2023-04-02T18:13:42.400Z,6.44
2023-04-02T18:16:22.315Z,6.53
2023-04-02T18:19:10.977Z,6.22
2023-04-02T18:22:02.480Z,6.32
2023-04-02T18:24:40.757Z,6.16
2023-04-02T18:27:52.088Z,5.99
2023-04-02T18:30:49.203Z,5.93
2023-04-02T18:33:28.511Z,5.98
2023-04-02T18:36:06.439Z,5.96
2023-04-02T18:39:00.645Z,6.08
2023-04-02T18:42:06.015Z,5.85
2023-04-02T18:44:53.007Z,6.01
2023-04-02T18:47:29.889Z,5.97
2023-04-02T18:50:40.951Z,5.84
2023-04-02T18:53:16.832Z,5.77
2023-04-02T18:55:50.432Z,5.71
2023-04-02T18:58:25.589Z,5.51
2023-04-02T19:00:52.472Z,5.47
2023-04-02T19:03:25.988Z,5.45
2023-04-02T19:06:03.169Z,5.44
2023-04-02T19:08:48.379Z,5.32
2023-04-02T19:11:21.966Z,5.36
2023-04-02T19:13:50.792Z,5.40
2023-04-02T19:16:17.197Z,5.23
2023-04-02T19:18:50.104Z,5.07
2023-04-02T19:21:33.221Z,5.09
2023-04-02T19:24:19.763Z,5.23
2023-04-02T19:26:56.477Z,5.11
2023-04-02T19:29:46.587Z,5.03
2023-04-02T19:32:33.850Z,4.96
2023-04-02T19:35:16.053Z,4.94
2023-04-02T19:38:10.205Z,4.89
2023-04-02T19:41:01.879Z,4.84
2023-04-02T19:43:29.159Z,4.92
2023-04-02T19:45:56.107Z,4.88
2023-04-02T19:48:28.905Z,4.75
2023-04-02T19:50:55.502Z,4.77
2023-04-02T19:53:22.191Z,4.85
2023-04-02T19:55:48.813Z,4.90
2023-04-02T19:58:30.675Z,4.82
2023-04-02T20:00:57.710Z,4.75
2023-04-02T20:03:24.539Z,4.62
2023-04-02T20:05:51.592Z,4.64
2023-04-02T20:08:18.310Z,4.60
2023-04-02T20:10:45.749Z,4.47
2023-04-02T20:13:12.292Z,4.59
2023-04-02T20:15:39.622Z,4.52
2023-04-02T20:18:06.161Z,4.49
2023-04-02T20:20:32.715Z,4.45
2023-04-02T20:22:59.412Z,4.35
2023-04-02T20:25:25.996Z,4.28
2023-04-02T20:27:52.480Z,4.32
2023-04-02T20:30:18.991Z,4.36
2023-04-02T20:32:45.776Z,4.29
2023-04-02T20:35:12.469Z,4.20
2023-04-02T20:37:40.868Z,4.18
2023-04-02T20:40:08.664Z,4.18
2023-04-02T20:42:35.305Z,4.15
2023-04-02T20:45:02.216Z,4.16
2023-04-02T20:47:28.653Z,4.15
2023-04-02T20:49:55.371Z,4.11
2023-04-02T20:52:21.953Z,3.96
2023-04-02T20:54:49.463Z,3.90
2023-04-02T20:57:16.565Z,3.81
2023-04-02T20:59:43.242Z,3.77
2023-04-02T21:02:11.836Z,3.80
2023-04-02T21:04:38.440Z,3.71
2023-04-02T21:07:04.902Z,3.67
2023-04-02T21:09:32.129Z,3.66
2023-04-02T21:11:59.101Z,3.57
2023-04-02T21:14:26.121Z,3.43
2023-04-02T21:16:52.534Z,3.43
2023-04-02T21:19:18.999Z,3.50
2023-04-02T21:21:45.547Z,3.51
2023-04-02T21:24:12.101Z,3.51
2023-04-02T21:26:41.054Z,3.45
2023-04-02T21:29:08.062Z,3.49
2023-04-02T21:31:37.534Z,3.41
2023-04-02T21:34:05.106Z,3.47
2023-04-02T21:36:34.934Z,3.39
2023-04-02T21:39:05.241Z,3.36
2023-04-02T21:41:40.809Z,3.27
2023-04-02T21:44:08.704Z,3.17
2023-04-02T21:46:38.473Z,3.11
2023-04-02T21:49:07.873Z,3.15
2023-04-02T21:51:35.794Z,3.05
2023-04-02T21:54:03.422Z,2.97
2023-04-02T21:56:32.293Z,2.91
2023-04-02T21:59:01.726Z,2.86
2023-04-02T22:01:34.369Z,2.86
2023-04-02T22:04:03.302Z,2.82
2023-04-02T22:06:31.467Z,2.80
2023-04-02T22:09:01.029Z,2.66
2023-04-02T22:11:34.547Z,2.60
2023-04-02T22:14:03.371Z,2.54
2023-04-02T22:16:32.027Z,2.46
2023-04-02T22:19:01.404Z,2.37
2023-04-02T22:21:29.568Z,2.44
2023-04-02T22:23:56.442Z,2.38
2023-04-02T22:26:23.222Z,2.41
2023-04-02T22:28:50.028Z,2.41
2023-04-02T22:31:19.168Z,2.41
2023-04-02T22:33:47.271Z,2.36
2023-04-02T22:36:15.791Z,2.28
2023-04-02T22:38:42.916Z,2.30
2023-04-02T22:41:13.170Z,2.30
2023-04-02T22:43:41.393Z,2.31
2023-04-02T22:46:09.938Z,2.35
2023-04-02T22:48:39.320Z,2.25
2023-04-02T22:51:07.604Z,2.21
2023-04-02T22:53:34.977Z,2.07
2023-04-02T22:56:03.490Z,2.07
2023-04-02T22:58:30.206Z,2.05
2023-04-02T23:00:56.622Z,2.10
2023-04-02T23:03:23.178Z,2.09
2023-04-02T23:06:04.537Z,2.01
2023-04-02T23:08:31.255Z,1.92
2023-04-02T23:11:12.313Z,1.92
2023-04-02T23:13:40.254Z,1.91
2023-04-02T23:16:08.593Z,1.92
2023-04-02T23:18:35.888Z,1.89
2023-04-02T23:21:03.266Z,1.85
2023-04-02T23:23:31.361Z,1.85
2023-04-02T23:26:09.376Z,1.82
2023-04-02T23:28:37.496Z,1.87
2023-04-02T23:31:06.658Z,1.86
2023-04-02T23:33:34.154Z,1.85
2023-04-02T23:36:05.819Z,1.85
2023-04-02T23:38:33.529Z,1.77
2023-04-02T23:40:59.930Z,1.75
2023-04-02T23:43:26.511Z,1.76
2023-04-02T23:45:53.002Z,1.78
2023-04-02T23:48:19.671Z,1.75
2023-04-02T23:50:46.243Z,1.76
2023-04-02T23:53:13.776Z,1.74
2023-04-02T23:55:40.659Z,1.69
2023-04-02T23:58:07.426Z,1.64
